sensor_id;sensor_type;location;lat;lon;timestamp;P1;durP1;ratioP1;P2;durP2;ratioP2
39522;SDS011;25202;51.216;6.806;2024-02-21T00:02:03;5.35;;;2.03;;
39522;SDS011;25202;51.216;6.806;2024-02-21T00:04:29;3.35;;;1.83;;
39522;SDS011;25202;51.216;6.806;2024-02-21T00:06:55;5.30;;;2.13;;
39522;SDS011;25202;51.216;6.806;2024-02-21T00:09:20;4.00;;;2.15;;
39522;SDS011;25202;51.216;6.806;2024-02-21T00:11:46;6.07;;;1.67;;
39522;SDS011;25202;51.216;6.806;2024-02-21T00:14:11;5.55;;;2.38;;
39522;SDS011;25202;51.216;6.806;2024-02-21T00:16:37;7.60;;;2.40;;
39522;SDS011;25202;51.216;6.806;2024-02-21T00:19:02;4.88;;;1.85;;
39522;SDS011;25202;51.216;6.806;2024-02-21T00:21:28;5.97;;;1.88;;
39522;SDS011;25202;51.216;6.806;2024-02-21T00:23:53;5.18;;;1.90;;
39522;SDS011;25202;51.216;6.806;2024-02-21T00:26:19;4.65;;;1.88;;
39522;SDS011;25202;51.216;6.806;2024-02-21T00:28:44;3.75;;;1.60;;
39522;SDS011;25202;51.216;6.806;2024-02-21T00:31:10;3.67;;;1.65;;
39522;SDS011;25202;51.216;6.806;2024-02-21T00:33:36;5.65;;;2.15;;
39522;SDS011;25202;51.216;6.806;2024-02-21T00:36:01;5.57;;;1.80;;
39522;SDS011;25202;51.216;6.806;2024-02-21T00:38:26;6.03;;;2.03;;
39522;SDS011;25202;51.216;6.806;2024-02-21T00:40:52;4.82;;;1.58;;
39522;SDS011;25202;51.216;6.806;2024-02-21T00:43:18;4.85;;;1.73;;
39522;SDS011;25202;51.216;6.806;2024-02-21T00:45:43;3.42;;;1.67;;
39522;SDS011;25202;51.216;6.806;2024-02-21T00:48:09;4.55;;;1.90;;
39522;SDS011;25202;51.216;6.806;2024-02-21T00:50:34;5.90;;;1.90;;
39522;SDS011;25202;51.216;6.806;2024-02-21T00:53:00;5.38;;;1.90;;
39522;SDS011;25202;51.216;6.806;2024-02-21T00:55:25;5.18;;;1.88;;
39522;SDS011;25202;51.216;6.806;2024-02-21T00:57:51;6.85;;;1.95;;
39522;SDS011;25202;51.216;6.806;2024-02-21T01:00:16;6.10;;;1.90;;
39522;SDS011;25202;51.216;6.806;2024-02-21T01:02:42;5.88;;;1.83;;
39522;SDS011;25202;51.216;6.806;2024-02-21T01:05:08;6.72;;;2.20;;
39522;SDS011;25202;51.216;6.806;2024-02-21T01:07:34;5.63;;;1.73;;
39522;SDS011;25202;51.216;6.806;2024-02-21T01:09:59;5.35;;;1.77;;
39522;SDS011;25202;51.216;6.806;2024-02-21T01:12:25;3.80;;;1.55;;
39522;SDS011;25202;51.216;6.806;2024-02-21T01:14:50;3.53;;;1.40;;
39522;SDS011;25202;51.216;6.806;2024-02-21T01:17:16;3.63;;;1.60;;
39522;SDS011;25202;51.216;6.806;2024-02-21T01:19:41;6.03;;;1.77;;
39522;SDS011;25202;51.216;6.806;2024-02-21T01:22:07;5.53;;;1.58;;
39522;SDS011;25202;51.216;6.806;2024-02-21T01:24:33;3.53;;;1.55;;
39522;SDS011;25202;51.216;6.806;2024-02-21T01:26:58;3.70;;;1.55;;
39522;SDS011;25202;51.216;6.806;2024-02-21T01:29:24;3.97;;;2.00;;
39522;SDS011;25202;51.216;6.806;2024-02-21T01:31:49;5.22;;;1.63;;
39522;SDS011;25202;51.216;6.806;2024-02-21T01:34:15;3.15;;;1.63;;
39522;SDS011;25202;51.216;6.806;2024-02-21T01:36:40;8.27;;;1.77;;
39522;SDS011;25202;51.216;6.806;2024-02-21T01:39:07;6.20;;;1.65;;
39522;SDS011;25202;51.216;6.806;2024-02-21T01:41:32;3.60;;;1.67;;
39522;SDS011;25202;51.216;6.806;2024-02-21T01:43:58;5.07;;;2.00;;
39522;SDS011;25202;51.216;6.806;2024-02-21T01:46:24;4.57;;;1.38;;
39522;SDS011;25202;51.216;6.806;2024-02-21T01:48:54;4.05;;;1.60;;
39522;SDS011;25202;51.216;6.806;2024-02-21T01:51:20;6.03;;;1.92;;
39522;SDS011;25202;51.216;6.806;2024-02-21T01:53:46;5.03;;;1.85;;
39522;SDS011;25202;51.216;6.806;2024-02-21T01:56:12;3.63;;;1.42;;
39522;SDS011;25202;51.216;6.806;2024-02-21T01:58:38;5.13;;;1.75;;
39522;SDS011;25202;51.216;6.806;2024-02-21T02:01:05;4.60;;;1.80;;
39522;SDS011;25202;51.216;6.806;2024-02-21T02:03:31;3.55;;;1.60;;
39522;SDS011;25202;51.216;6.806;2024-02-21T02:05:56;5.47;;;1.77;;
39522;SDS011;25202;51.216;6.806;2024-02-21T02:08:22;3.30;;;1.70;;
39522;SDS011;25202;51.216;6.806;2024-02-21T02:10:47;4.35;;;1.83;;
39522;SDS011;25202;51.216;6.806;2024-02-21T02:13:13;5.63;;;1.80;;
39522;SDS011;25202;51.216;6.806;2024-02-21T02:15:43;4.72;;;1.63;;
39522;SDS011;25202;51.216;6.806;2024-02-21T02:18:11;4.68;;;1.80;;
39522;SDS011;25202;51.216;6.806;2024-02-21T02:20:37;4.97;;;1.70;;
39522;SDS011;25202;51.216;6.806;2024-02-21T02:23:10;3.78;;;1.75;;
39522;SDS011;25202;51.216;6.806;2024-02-21T02:25:47;5.80;;;1.60;;
39522;SDS011;25202;51.216;6.806;2024-02-21T02:28:19;3.65;;;1.30;;
39522;SDS011;25202;51.216;6.806;2024-02-21T02:30:44;4.20;;;1.50;;
39522;SDS011;25202;51.216;6.806;2024-02-21T02:33:10;5.07;;;1.80;;
39522;SDS011;25202;51.216;6.806;2024-02-21T02:35:36;4.82;;;1.58;;
39522;SDS011;25202;51.216;6.806;2024-02-21T02:38:02;6.72;;;1.70;;
39522;SDS011;25202;51.216;6.806;2024-02-21T02:40:28;3.78;;;1.60;;
39522;SDS011;25202;51.216;6.806;2024-02-21T02:42:53;3.92;;;1.50;;
39522;SDS011;25202;51.216;6.806;2024-02-21T02:45:20;4.10;;;1.77;;
39522;SDS011;25202;51.216;6.806;2024-02-21T02:47:47;4.60;;;1.70;;
39522;SDS011;25202;51.216;6.806;2024-02-21T02:50:13;5.80;;;1.80;;
39522;SDS011;25202;51.216;6.806;2024-02-21T02:52:39;4.00;;;1.60;;
39522;SDS011;25202;51.216;6.806;2024-02-21T02:55:05;2.95;;;1.38;;
39522;SDS011;25202;51.216;6.806;2024-02-21T02:57:31;4.30;;;1.65;;
39522;SDS011;25202;51.216;6.806;2024-02-21T02:59:57;3.72;;;1.58;;
39522;SDS011;25202;51.216;6.806;2024-02-21T03:02:22;5.30;;;1.92;;
39522;SDS011;25202;51.216;6.806;2024-02-21T03:04:48;3.45;;;1.70;;
39522;SDS011;25202;51.216;6.806;2024-02-21T03:07:14;7.32;;;1.73;;
39522;SDS011;25202;51.216;6.806;2024-02-21T03:09:40;4.20;;;1.40;;
39522;SDS011;25202;51.216;6.806;2024-02-21T03:12:08;4.15;;;1.40;;
39522;SDS011;25202;51.216;6.806;2024-02-21T03:14:34;3.85;;;1.52;;
39522;SDS011;25202;51.216;6.806;2024-02-21T03:17:00;5.70;;;1.60;;
39522;SDS011;25202;51.216;6.806;2024-02-21T03:19:26;3.47;;;1.50;;
39522;SDS011;25202;51.216;6.806;2024-02-21T03:21:52;4.45;;;1.67;;
39522;SDS011;25202;51.216;6.806;2024-02-21T03:24:20;4.40;;;1.65;;
39522;SDS011;25202;51.216;6.806;2024-02-21T03:26:46;5.05;;;1.85;;
39522;SDS011;25202;51.216;6.806;2024-02-21T03:29:15;4.53;;;1.67;;
39522;SDS011;25202;51.216;6.806;2024-02-21T03:31:42;4.45;;;1.70;;
39522;SDS011;25202;51.216;6.806;2024-02-21T03:34:09;2.45;;;1.52;;
39522;SDS011;25202;51.216;6.806;2024-02-21T03:36:35;2.92;;;1.50;;
39522;SDS011;25202;51.216;6.806;2024-02-21T03:39:01;3.80;;;1.50;;
39522;SDS011;25202;51.216;6.806;2024-02-21T03:41:27;4.47;;;1.77;;
39522;SDS011;25202;51.216;6.806;2024-02-21T03:43:52;3.58;;;1.67;;
39522;SDS011;25202;51.216;6.806;2024-02-21T03:46:18;3.35;;;1.30;;
39522;SDS011;25202;51.216;6.806;2024-02-21T03:48:43;4.65;;;1.73;;
39522;SDS011;25202;51.216;6.806;2024-02-21T03:51:09;7.05;;;1.85;;
39522;SDS011;25202;51.216;6.806;2024-02-21T03:53:35;4.07;;;1.40;;
39522;SDS011;25202;51.216;6.806;2024-02-21T03:56:01;4.18;;;1.55;;
39522;SDS011;25202;51.216;6.806;2024-02-21T03:58:29;3.40;;;1.38;;
39522;SDS011;25202;51.216;6.806;2024-02-21T04:00:55;2.85;;;1.25;;
39522;SDS011;25202;51.216;6.806;2024-02-21T04:03:20;2.60;;;1.30;;
39522;SDS011;25202;51.216;6.806;2024-02-21T04:05:46;3.65;;;1.80;;
39522;SDS011;25202;51.216;6.806;2024-02-21T04:08:11;3.25;;;1.25;;
39522;SDS011;25202;51.216;6.806;2024-02-21T04:10:37;5.38;;;1.98;;
39522;SDS011;25202;51.216;6.806;2024-02-21T04:13:03;4.82;;;1.90;;
39522;SDS011;25202;51.216;6.806;2024-02-21T04:15:30;5.70;;;1.45;;
39522;SDS011;25202;51.216;6.806;2024-02-21T04:17:55;3.85;;;1.45;;
39522;SDS011;25202;51.216;6.806;2024-02-21T04:20:21;2.67;;;1.33;;
39522;SDS011;25202;51.216;6.806;2024-02-21T04:22:46;4.93;;;1.80;;
39522;SDS011;25202;51.216;6.806;2024-02-21T04:25:12;4.93;;;1.60;;
39522;SDS011;25202;51.216;6.806;2024-02-21T04:27:38;4.93;;;2.00;;
39522;SDS011;25202;51.216;6.806;2024-02-21T04:30:04;3.88;;;1.40;;
39522;SDS011;25202;51.216;6.806;2024-02-21T04:32:31;3.03;;;1.58;;
39522;SDS011;25202;51.216;6.806;2024-02-21T04:34:57;4.15;;;1.60;;
39522;SDS011;25202;51.216;6.806;2024-02-21T04:37:22;7.72;;;2.30;;
39522;SDS011;25202;51.216;6.806;2024-02-21T04:39:48;6.20;;;1.95;;
39522;SDS011;25202;51.216;6.806;2024-02-21T04:42:14;5.07;;;1.60;;
39522;SDS011;25202;51.216;6.806;2024-02-21T04:44:40;7.20;;;1.75;;
39522;SDS011;25202;51.216;6.806;2024-02-21T04:47:05;3.33;;;1.30;;
39522;SDS011;25202;51.216;6.806;2024-02-21T04:49:31;4.32;;;1.58;;
39522;SDS011;25202;51.216;6.806;2024-02-21T04:51:57;4.80;;;1.27;;
39522;SDS011;25202;51.216;6.806;2024-02-21T04:54:23;4.32;;;1.40;;
39522;SDS011;25202;51.216;6.806;2024-02-21T04:56:48;4.10;;;1.45;;
39522;SDS011;25202;51.216;6.806;2024-02-21T04:59:14;2.88;;;1.33;;
39522;SDS011;25202;51.216;6.806;2024-02-21T05:01:39;4.40;;;1.75;;
39522;SDS011;25202;51.216;6.806;2024-02-21T05:04:05;4.80;;;1.67;;
39522;SDS011;25202;51.216;6.806;2024-02-21T05:06:31;3.83;;;1.33;;
39522;SDS011;25202;51.216;6.806;2024-02-21T05:08:56;4.20;;;1.77;;
39522;SDS011;25202;51.216;6.806;2024-02-21T05:11:23;6.28;;;1.65;;
39522;SDS011;25202;51.216;6.806;2024-02-21T05:13:49;3.10;;;1.27;;
39522;SDS011;25202;51.216;6.806;2024-02-21T05:16:15;4.45;;;1.30;;
39522;SDS011;25202;51.216;6.806;2024-02-21T05:18:41;4.47;;;1.50;;
39522;SDS011;25202;51.216;6.806;2024-02-21T05:21:07;3.05;;;1.48;;
39522;SDS011;25202;51.216;6.806;2024-02-21T05:23:33;3.55;;;1.50;;
39522;SDS011;25202;51.216;6.806;2024-02-21T05:25:58;3.47;;;1.38;;
39522;SDS011;25202;51.216;6.806;2024-02-21T05:28:24;3.85;;;1.48;;
39522;SDS011;25202;51.216;6.806;2024-02-21T05:30:49;4.70;;;1.75;;
39522;SDS011;25202;51.216;6.806;2024-02-21T05:33:15;2.92;;;1.38;;
39522;SDS011;25202;51.216;6.806;2024-02-21T05:35:46;3.13;;;1.35;;
39522;SDS011;25202;51.216;6.806;2024-02-21T05:38:13;3.25;;;1.38;;
39522;SDS011;25202;51.216;6.806;2024-02-21T05:40:39;4.00;;;1.52;;
39522;SDS011;25202;51.216;6.806;2024-02-21T05:43:05;6.22;;;1.83;;
39522;SDS011;25202;51.216;6.806;2024-02-21T05:45:31;6.93;;;1.65;;
39522;SDS011;25202;51.216;6.806;2024-02-21T05:47:57;6.20;;;1.58;;
39522;SDS011;25202;51.216;6.806;2024-02-21T05:50:22;3.92;;;1.45;;
39522;SDS011;25202;51.216;6.806;2024-02-21T05:52:52;5.10;;;1.70;;
39522;SDS011;25202;51.216;6.806;2024-02-21T05:55:21;4.53;;;2.00;;
39522;SDS011;25202;51.216;6.806;2024-02-21T05:57:47;3.22;;;1.42;;
39522;SDS011;25202;51.216;6.806;2024-02-21T06:00:12;4.40;;;1.52;;
39522;SDS011;25202;51.216;6.806;2024-02-21T06:02:38;7.45;;;1.52;;
39522;SDS011;25202;51.216;6.806;2024-02-21T06:05:05;4.63;;;1.48;;
39522;SDS011;25202;51.216;6.806;2024-02-21T06:07:33;4.65;;;1.60;;
39522;SDS011;25202;51.216;6.806;2024-02-21T06:09:59;3.53;;;1.20;;
39522;SDS011;25202;51.216;6.806;2024-02-21T06:12:25;3.95;;;1.45;;
39522;SDS011;25202;51.216;6.806;2024-02-21T06:14:50;3.97;;;1.48;;
39522;SDS011;25202;51.216;6.806;2024-02-21T06:17:17;4.38;;;1.50;;
39522;SDS011;25202;51.216;6.806;2024-02-21T06:19:42;2.60;;;1.30;;
39522;SDS011;25202;51.216;6.806;2024-02-21T06:22:08;4.07;;;1.65;;
39522;SDS011;25202;51.216;6.806;2024-02-21T06:24:35;3.97;;;1.20;;
39522;SDS011;25202;51.216;6.806;2024-02-21T06:27:01;3.05;;;1.33;;
39522;SDS011;25202;51.216;6.806;2024-02-21T06:29:27;2.63;;;1.27;;
39522;SDS011;25202;51.216;6.806;2024-02-21T06:31:53;3.42;;;1.48;;
39522;SDS011;25202;51.216;6.806;2024-02-21T06:34:18;3.42;;;1.30;;
39522;SDS011;25202;51.216;6.806;2024-02-21T06:36:44;4.18;;;1.30;;
39522;SDS011;25202;51.216;6.806;2024-02-21T06:39:10;3.97;;;1.33;;
39522;SDS011;25202;51.216;6.806;2024-02-21T06:41:36;4.93;;;1.70;;
39522;SDS011;25202;51.216;6.806;2024-02-21T06:44:02;5.93;;;1.40;;
39522;SDS011;25202;51.216;6.806;2024-02-21T06:46:28;4.85;;;1.23;;
39522;SDS011;25202;51.216;6.806;2024-02-21T06:48:54;3.25;;;1.50;;
39522;SDS011;25202;51.216;6.806;2024-02-21T06:51:21;5.53;;;1.65;;
39522;SDS011;25202;51.216;6.806;2024-02-21T06:53:47;3.33;;;1.20;;
39522;SDS011;25202;51.216;6.806;2024-02-21T06:56:13;2.22;;;1.25;;
39522;SDS011;25202;51.216;6.806;2024-02-21T06:58:38;2.35;;;1.30;;
39522;SDS011;25202;51.216;6.806;2024-02-21T07:01:04;4.03;;;1.55;;
39522;SDS011;25202;51.216;6.806;2024-02-21T07:03:30;3.70;;;1.50;;
39522;SDS011;25202;51.216;6.806;2024-02-21T07:05:55;2.92;;;1.40;;
39522;SDS011;25202;51.216;6.806;2024-02-21T07:08:21;3.53;;;1.42;;
39522;SDS011;25202;51.216;6.806;2024-02-21T07:10:47;3.72;;;1.00;;
39522;SDS011;25202;51.216;6.806;2024-02-21T07:13:12;3.40;;;1.65;;
39522;SDS011;25202;51.216;6.806;2024-02-21T07:15:38;3.83;;;1.30;;
39522;SDS011;25202;51.216;6.806;2024-02-21T07:18:04;2.15;;;1.15;;
39522;SDS011;25202;51.216;6.806;2024-02-21T07:20:29;4.07;;;1.73;;
39522;SDS011;25202;51.216;6.806;2024-02-21T07:22:55;3.05;;;1.50;;
39522;SDS011;25202;51.216;6.806;2024-02-21T07:25:20;2.95;;;1.20;;
39522;SDS011;25202;51.216;6.806;2024-02-21T07:27:46;4.25;;;1.33;;
39522;SDS011;25202;51.216;6.806;2024-02-21T07:30:12;3.15;;;1.30;;
39522;SDS011;25202;51.216;6.806;2024-02-21T07:32:37;4.40;;;1.30;;
39522;SDS011;25202;51.216;6.806;2024-02-21T07:35:03;2.50;;;1.15;;
39522;SDS011;25202;51.216;6.806;2024-02-21T07:37:30;3.90;;;1.73;;
39522;SDS011;25202;51.216;6.806;2024-02-21T07:39:56;4.20;;;1.30;;
39522;SDS011;25202;51.216;6.806;2024-02-21T07:42:21;5.35;;;1.40;;
39522;SDS011;25202;51.216;6.806;2024-02-21T07:44:47;6.78;;;1.75;;
39522;SDS011;25202;51.216;6.806;2024-02-21T07:47:12;3.50;;;1.27;;
39522;SDS011;25202;51.216;6.806;2024-02-21T07:49:43;3.63;;;1.60;;
39522;SDS011;25202;51.216;6.806;2024-02-21T07:52:09;2.92;;;1.38;;
39522;SDS011;25202;51.216;6.806;2024-02-21T07:54:35;2.47;;;1.38;;
39522;SDS011;25202;51.216;6.806;2024-02-21T07:57:00;4.00;;;1.40;;
39522;SDS011;25202;51.216;6.806;2024-02-21T07:59:26;3.70;;;1.45;;
39522;SDS011;25202;51.216;6.806;2024-02-21T08:01:51;3.08;;;1.63;;
39522;SDS011;25202;51.216;6.806;2024-02-21T08:04:17;6.30;;;1.83;;
39522;SDS011;25202;51.216;6.806;2024-02-21T08:06:42;4.38;;;1.50;;
39522;SDS011;25202;51.216;6.806;2024-02-21T08:09:10;4.82;;;1.75;;
39522;SDS011;25202;51.216;6.806;2024-02-21T08:11:35;7.93;;;1.77;;
39522;SDS011;25202;51.216;6.806;2024-02-21T08:14:02;4.13;;;1.40;;
39522;SDS011;25202;51.216;6.806;2024-02-21T08:16:28;2.70;;;1.40;;
39522;SDS011;25202;51.216;6.806;2024-02-21T08:18:53;2.83;;;1.10;;
39522;SDS011;25202;51.216;6.806;2024-02-21T08:21:19;4.47;;;1.30;;
39522;SDS011;25202;51.216;6.806;2024-02-21T08:23:45;5.13;;;1.60;;
39522;SDS011;25202;51.216;6.806;2024-02-21T08:26:10;3.08;;;1.50;;
39522;SDS011;25202;51.216;6.806;2024-02-21T08:28:36;3.00;;;1.27;;
39522;SDS011;25202;51.216;6.806;2024-02-21T08:31:02;4.20;;;1.35;;
39522;SDS011;25202;51.216;6.806;2024-02-21T08:33:27;6.75;;;1.48;;
39522;SDS011;25202;51.216;6.806;2024-02-21T08:35:54;2.85;;;1.45;;
39522;SDS011;25202;51.216;6.806;2024-02-21T08:38:20;2.72;;;1.55;;
39522;SDS011;25202;51.216;6.806;2024-02-21T08:40:45;5.80;;;1.88;;
39522;SDS011;25202;51.216;6.806;2024-02-21T08:43:11;4.47;;;1.65;;
39522;SDS011;25202;51.216;6.806;2024-02-21T08:45:37;2.78;;;1.20;;
39522;SDS011;25202;51.216;6.806;2024-02-21T08:48:02;5.55;;;1.40;;
39522;SDS011;25202;51.216;6.806;2024-02-21T08:50:28;5.18;;;1.50;;
39522;SDS011;25202;51.216;6.806;2024-02-21T08:52:54;3.63;;;1.77;;
39522;SDS011;25202;51.216;6.806;2024-02-21T08:55:20;3.20;;;1.40;;
39522;SDS011;25202;51.216;6.806;2024-02-21T08:57:45;3.70;;;1.40;;
39522;SDS011;25202;51.216;6.806;2024-02-21T09:00:11;3.20;;;1.45;;
39522;SDS011;25202;51.216;6.806;2024-02-21T09:02:40;3.50;;;1.35;;
39522;SDS011;25202;51.216;6.806;2024-02-21T09:05:08;3.05;;;1.42;;
39522;SDS011;25202;51.216;6.806;2024-02-21T09:07:34;3.22;;;1.35;;
39522;SDS011;25202;51.216;6.806;2024-02-21T09:09:59;2.65;;;1.23;;
39522;SDS011;25202;51.216;6.806;2024-02-21T09:12:26;2.03;;;0.95;;
39522;SDS011;25202;51.216;6.806;2024-02-21T09:14:51;7.90;;;1.38;;
39522;SDS011;25202;51.216;6.806;2024-02-21T09:17:17;4.32;;;1.40;;
39522;SDS011;25202;51.216;6.806;2024-02-21T09:19:43;2.55;;;0.98;;
39522;SDS011;25202;51.216;6.806;2024-02-21T09:22:09;5.20;;;1.58;;
39522;SDS011;25202;51.216;6.806;2024-02-21T09:24:35;10.68;;;2.60;;
39522;SDS011;25202;51.216;6.806;2024-02-21T09:27:00;3.47;;;1.55;;
39522;SDS011;25202;51.216;6.806;2024-02-21T09:29:26;7.53;;;1.67;;
39522;SDS011;25202;51.216;6.806;2024-02-21T09:31:51;4.55;;;1.63;;
39522;SDS011;25202;51.216;6.806;2024-02-21T09:34:17;6.82;;;1.77;;
39522;SDS011;25202;51.216;6.806;2024-02-21T09:36:44;7.35;;;1.90;;
39522;SDS011;25202;51.216;6.806;2024-02-21T09:39:10;3.53;;;1.60;;
39522;SDS011;25202;51.216;6.806;2024-02-21T09:41:40;5.47;;;1.67;;
39522;SDS011;25202;51.216;6.806;2024-02-21T09:44:11;5.63;;;1.92;;
39522;SDS011;25202;51.216;6.806;2024-02-21T09:49:21;5.18;;;1.80;;
39522;SDS011;25202;51.216;6.806;2024-02-21T09:52:02;6.53;;;1.80;;
39522;SDS011;25202;51.216;6.806;2024-02-21T09:54:30;7.75;;;2.00;;
39522;SDS011;25202;51.216;6.806;2024-02-21T09:56:59;4.85;;;1.50;;
39522;SDS011;25202;51.216;6.806;2024-02-21T09:59:28;3.72;;;1.63;;
39522;SDS011;25202;51.216;6.806;2024-02-21T10:01:54;5.22;;;1.50;;
39522;SDS011;25202;51.216;6.806;2024-02-21T10:04:20;7.15;;;1.50;;
39522;SDS011;25202;51.216;6.806;2024-02-21T10:06:46;9.88;;;1.77;;
39522;SDS011;25202;51.216;6.806;2024-02-21T10:09:22;3.75;;;1.85;;
39522;SDS011;25202;51.216;6.806;2024-02-21T10:11:48;5.30;;;2.10;;
39522;SDS011;25202;51.216;6.806;2024-02-21T10:14:15;4.50;;;2.08;;
39522;SDS011;25202;51.216;6.806;2024-02-21T10:16:41;4.72;;;2.00;;
39522;SDS011;25202;51.216;6.806;2024-02-21T10:19:15;7.90;;;2.10;;
39522;SDS011;25202;51.216;6.806;2024-02-21T10:21:42;4.25;;;2.05;;
39522;SDS011;25202;51.216;6.806;2024-02-21T10:24:07;4.72;;;2.17;;
39522;SDS011;25202;51.216;6.806;2024-02-21T10:26:33;4.72;;;1.88;;
39522;SDS011;25202;51.216;6.806;2024-02-21T10:28:58;3.88;;;2.00;;
39522;SDS011;25202;51.216;6.806;2024-02-21T10:31:27;3.78;;;1.90;;
39522;SDS011;25202;51.216;6.806;2024-02-21T10:33:57;9.20;;;2.03;;
39522;SDS011;25202;51.216;6.806;2024-02-21T10:36:23;3.42;;;2.00;;
39522;SDS011;25202;51.216;6.806;2024-02-21T10:38:50;6.97;;;2.20;;
39522;SDS011;25202;51.216;6.806;2024-02-21T10:41:16;3.97;;;2.17;;
39522;SDS011;25202;51.216;6.806;2024-02-21T10:43:46;4.30;;;1.92;;
39522;SDS011;25202;51.216;6.806;2024-02-21T10:46:14;4.90;;;2.03;;
39522;SDS011;25202;51.216;6.806;2024-02-21T10:48:44;6.00;;;2.25;;
39522;SDS011;25202;51.216;6.806;2024-02-21T10:51:17;5.35;;;2.03;;
39522;SDS011;25202;51.216;6.806;2024-02-21T10:56:39;3.47;;;2.10;;
39522;SDS011;25202;51.216;6.806;2024-02-21T10:59:06;6.07;;;2.65;;
39522;SDS011;25202;51.216;6.806;2024-02-21T11:01:33;5.60;;;2.20;;
39522;SDS011;25202;51.216;6.806;2024-02-21T11:04:07;5.75;;;2.53;;
39522;SDS011;25202;51.216;6.806;2024-02-21T11:06:37;4.68;;;2.03;;
39522;SDS011;25202;51.216;6.806;2024-02-21T11:11:40;4.00;;;2.25;;
39522;SDS011;25202;51.216;6.806;2024-02-21T11:14:21;4.90;;;2.78;;
39522;SDS011;25202;51.216;6.806;2024-02-21T11:16:47;4.95;;;2.50;;
39522;SDS011;25202;51.216;6.806;2024-02-21T11:19:20;4.65;;;2.40;;
39522;SDS011;25202;51.216;6.806;2024-02-21T11:21:47;4.72;;;2.60;;
39522;SDS011;25202;51.216;6.806;2024-02-21T11:24:25;4.80;;;2.60;;
39522;SDS011;25202;51.216;6.806;2024-02-21T11:26:55;5.53;;;2.40;;
39522;SDS011;25202;51.216;6.806;2024-02-21T11:29:48;6.32;;;2.70;;
39522;SDS011;25202;51.216;6.806;2024-02-21T11:32:16;7.88;;;2.78;;
39522;SDS011;25202;51.216;6.806;2024-02-21T11:34:56;5.38;;;2.85;;
39522;SDS011;25202;51.216;6.806;2024-02-21T11:37:23;5.18;;;2.72;;
39522;SDS011;25202;51.216;6.806;2024-02-21T11:39:50;5.60;;;3.03;;
39522;SDS011;25202;51.216;6.806;2024-02-21T11:42:18;4.00;;;2.75;;
39522;SDS011;25202;51.216;6.806;2024-02-21T11:44:43;4.65;;;2.65;;
39522;SDS011;25202;51.216;6.806;2024-02-21T11:47:09;4.00;;;2.75;;
39522;SDS011;25202;51.216;6.806;2024-02-21T11:49:38;4.18;;;2.72;;
39522;SDS011;25202;51.216;6.806;2024-02-21T11:52:08;4.70;;;2.38;;
39522;SDS011;25202;51.216;6.806;2024-02-21T11:54:33;4.80;;;2.80;;
39522;SDS011;25202;51.216;6.806;2024-02-21T11:57:00;5.00;;;2.80;;
39522;SDS011;25202;51.216;6.806;2024-02-21T11:59:26;5.07;;;2.75;;
39522;SDS011;25202;51.216;6.806;2024-02-21T12:01:52;4.13;;;2.60;;
39522;SDS011;25202;51.216;6.806;2024-02-21T12:04:18;4.72;;;2.63;;
39522;SDS011;25202;51.216;6.806;2024-02-21T12:06:45;5.07;;;2.60;;
39522;SDS011;25202;51.216;6.806;2024-02-21T12:09:14;6.78;;;2.60;;
39522;SDS011;25202;51.216;6.806;2024-02-21T12:11:43;4.57;;;2.83;;
39522;SDS011;25202;51.216;6.806;2024-02-21T12:14:09;5.85;;;2.60;;
39522;SDS011;25202;51.216;6.806;2024-02-21T12:16:35;5.07;;;3.00;;
39522;SDS011;25202;51.216;6.806;2024-02-21T12:19:04;3.83;;;2.55;;
39522;SDS011;25202;51.216;6.806;2024-02-21T12:21:30;4.72;;;2.53;;
39522;SDS011;25202;51.216;6.806;2024-02-21T12:23:57;4.43;;;2.55;;
39522;SDS011;25202;51.216;6.806;2024-02-21T12:26:24;5.93;;;2.75;;
39522;SDS011;25202;51.216;6.806;2024-02-21T12:28:49;5.38;;;2.85;;
39522;SDS011;25202;51.216;6.806;2024-02-21T12:31:15;4.00;;;2.70;;
39522;SDS011;25202;51.216;6.806;2024-02-21T12:33:41;3.17;;;2.63;;
39522;SDS011;25202;51.216;6.806;2024-02-21T12:36:09;4.82;;;2.83;;
39522;SDS011;25202;51.216;6.806;2024-02-21T12:38:36;5.20;;;2.63;;
39522;SDS011;25202;51.216;6.806;2024-02-21T12:41:02;5.00;;;2.60;;
39522;SDS011;25202;51.216;6.806;2024-02-21T12:43:28;5.60;;;2.78;;
39522;SDS011;25202;51.216;6.806;2024-02-21T12:45:54;4.57;;;2.78;;
39522;SDS011;25202;51.216;6.806;2024-02-21T12:48:19;5.45;;;2.80;;
39522;SDS011;25202;51.216;6.806;2024-02-21T12:50:48;7.30;;;3.03;;
39522;SDS011;25202;51.216;6.806;2024-02-21T12:53:17;6.45;;;3.03;;
39522;SDS011;25202;51.216;6.806;2024-02-21T12:55:46;4.13;;;2.50;;
39522;SDS011;25202;51.216;6.806;2024-02-21T12:58:15;5.22;;;2.63;;
39522;SDS011;25202;51.216;6.806;2024-02-21T13:00:41;3.78;;;2.42;;
39522;SDS011;25202;51.216;6.806;2024-02-21T13:03:07;4.63;;;2.38;;
39522;SDS011;25202;51.216;6.806;2024-02-21T13:05:32;3.17;;;2.60;;
39522;SDS011;25202;51.216;6.806;2024-02-21T13:07:58;3.85;;;2.42;;
39522;SDS011;25202;51.216;6.806;2024-02-21T13:10:24;2.92;;;2.22;;
39522;SDS011;25202;51.216;6.806;2024-02-21T13:12:50;4.22;;;2.83;;
39522;SDS011;25202;51.216;6.806;2024-02-21T13:15:16;4.03;;;2.38;;
39522;SDS011;25202;51.216;6.806;2024-02-21T13:17:43;4.85;;;2.60;;
39522;SDS011;25202;51.216;6.806;2024-02-21T13:20:09;7.40;;;2.65;;
39522;SDS011;25202;51.216;6.806;2024-02-21T13:22:36;7.55;;;3.05;;
39522;SDS011;25202;51.216;6.806;2024-02-21T13:25:01;4.38;;;2.78;;
39522;SDS011;25202;51.216;6.806;2024-02-21T13:27:27;4.72;;;2.67;;
39522;SDS011;25202;51.216;6.806;2024-02-21T13:29:53;4.72;;;2.53;;
39522;SDS011;25202;51.216;6.806;2024-02-21T13:32:18;3.80;;;2.67;;
39522;SDS011;25202;51.216;6.806;2024-02-21T13:34:44;3.78;;;2.63;;
39522;SDS011;25202;51.216;6.806;2024-02-21T13:37:09;4.22;;;2.78;;
39522;SDS011;25202;51.216;6.806;2024-02-21T13:39:35;4.40;;;2.85;;
39522;SDS011;25202;51.216;6.806;2024-02-21T13:42:01;5.57;;;2.47;;
39522;SDS011;25202;51.216;6.806;2024-02-21T13:44:29;6.93;;;2.55;;
39522;SDS011;25202;51.216;6.806;2024-02-21T13:46:55;5.28;;;2.67;;
39522;SDS011;25202;51.216;6.806;2024-02-21T13:49:20;5.13;;;2.90;;
39522;SDS011;25202;51.216;6.806;2024-02-21T13:51:46;4.63;;;2.85;;
39522;SDS011;25202;51.216;6.806;2024-02-21T13:54:12;5.43;;;3.17;;
39522;SDS011;25202;51.216;6.806;2024-02-21T13:56:41;6.75;;;2.50;;
39522;SDS011;25202;51.216;6.806;2024-02-21T13:59:07;5.32;;;2.92;;
39522;SDS011;25202;51.216;6.806;2024-02-21T14:01:33;5.20;;;2.83;;
39522;SDS011;25202;51.216;6.806;2024-02-21T14:03:59;3.03;;;2.20;;
39522;SDS011;25202;51.216;6.806;2024-02-21T14:06:24;4.55;;;2.78;;
39522;SDS011;25202;51.216;6.806;2024-02-21T14:08:50;3.58;;;2.63;;
39522;SDS011;25202;51.216;6.806;2024-02-21T14:11:15;4.15;;;2.40;;
39522;SDS011;25202;51.216;6.806;2024-02-21T14:13:41;5.75;;;2.80;;
39522;SDS011;25202;51.216;6.806;2024-02-21T14:16:10;2.97;;;2.58;;
39522;SDS011;25202;51.216;6.806;2024-02-21T14:18:39;4.25;;;3.03;;
39522;SDS011;25202;51.216;6.806;2024-02-21T14:21:10;3.67;;;2.42;;
39522;SDS011;25202;51.216;6.806;2024-02-21T14:23:36;3.72;;;2.50;;
39522;SDS011;25202;51.216;6.806;2024-02-21T14:26:02;3.15;;;2.53;;
39522;SDS011;25202;51.216;6.806;2024-02-21T14:28:28;3.35;;;2.35;;
39522;SDS011;25202;51.216;6.806;2024-02-21T14:30:54;3.72;;;2.30;;
39522;SDS011;25202;51.216;6.806;2024-02-21T14:33:23;2.85;;;2.22;;
39522;SDS011;25202;51.216;6.806;2024-02-21T14:35:49;4.15;;;2.60;;
39522;SDS011;25202;51.216;6.806;2024-02-21T14:38:16;4.38;;;2.40;;
39522;SDS011;25202;51.216;6.806;2024-02-21T14:40:42;3.03;;;1.95;;
39522;SDS011;25202;51.216;6.806;2024-02-21T14:43:08;2.80;;;2.10;;
39522;SDS011;25202;51.216;6.806;2024-02-21T14:45:34;3.15;;;2.22;;
39522;SDS011;25202;51.216;6.806;2024-02-21T14:47:59;3.08;;;2.20;;
39522;SDS011;25202;51.216;6.806;2024-02-21T14:50:25;3.17;;;2.45;;
39522;SDS011;25202;51.216;6.806;2024-02-21T14:52:50;3.08;;;2.35;;